Valor — WDD8691 — position and weather

sailwx.info

Track history (hours):
 
Tides and Currents Weather Stations Pressure Air Temp Water Temp Dewpoint Dewpoint Depression Visibility Wind Speed Wind Dir Waves Ship Positions

Valor

Owner: Crowley Marine Services, Seattle, WA. More information available from US FCC via Universal Licensing System and Coast Guard Vessel Documentation Center.

Last reported at 2017-Jan-22 05:34 UTC. Time now 2017-Jan-22 06:03 UTC.
Position N 37°49' W 122°19'.

Length 8 m; draft 5.5 m.

Type: Tug. MMSI: 367301480.

Date/timePositionNaut miles runAvg speedWind from/ knotsBaromVisibWave heightAir tempDewpointWater temp
2017-Jan-22 05:34N 37°49' W 122°19'0 0.0
2017-Jan-22 04:34N 37°49' W 122°19'0 0.0
2017-Jan-22 03:34N 37°49' W 122°19'0 0.0
2017-Jan-22 02:33N 37°49' W 122°19'0 0.0
2017-Jan-22 01:34N 37°49' W 122°19'0 0.0
2017-Jan-22 00:33N 37°49' W 122°19'0 0.0
2017-Jan-21 23:33N 37°49' W 122°19'0 0.0
2017-Jan-21 22:34N 37°49' W 122°19'0 0.0
2017-Jan-21 21:33N 37°49' W 122°19'0 0.0
2017-Jan-21 20:33N 37°49' W 122°19'0 0.0
2017-Jan-21 19:34N 37°49' W 122°19'0 0.0
2017-Jan-21 18:33N 37°49' W 122°19'0 0.0
2017-Jan-21 17:33N 37°49' W 122°19'0 0.0
2017-Jan-21 16:33N 37°49' W 122°19'0 0.0
2017-Jan-21 15:33N 37°49' W 122°19'0 0.0
2017-Jan-21 14:33N 37°49' W 122°19'0 0.0
2017-Jan-21 13:34N 37°49' W 122°19'0 0.0
2017-Jan-21 12:34N 37°49' W 122°19'0 0.0
2017-Jan-21 11:33N 37°49' W 122°19'0 0.0
2017-Jan-21 10:34N 37°49' W 122°19'0 0.0
2017-Jan-21 09:33N 37°49' W 122°19'0 0.0
2017-Jan-21 08:34N 37°49' W 122°19'0 0.0
2017-Jan-21 07:34N 37°49' W 122°19'0 0.0
2017-Jan-21 06:34N 37°49' W 122°19'0 0.0
2017-Jan-21 05:33N 37°49' W 122°19'6 5.6
2017-Jan-21 04:33N 37°53' W 122°24'3 2.9
2017-Jan-21 03:33N 37°55' W 122°22'3 2.9
2017-Jan-21 02:34N 37°55' W 122°25'6 6.3
2017-Jan-21 01:34N 37°49' W 122°22'2 2.3
2017-Jan-21 00:33N 37°49' W 122°19'0 0.0
2017-Jan-20 23:34N 37°49' W 122°19'0 0.0
2017-Jan-20 22:34N 37°49' W 122°19'0 0.0
2017-Jan-20 21:34N 37°49' W 122°19'0 0.3
2017-Jan-20 20:34N 37°49' W 122°19'7 6.6
2017-Jan-20 19:34N 37°54' W 122°25'7 7.4
2017-Jan-20 18:33N 38°01' W 122°23'6 5.3
2017-Jan-20 17:22N 38°03' W 122°16'2 2.9
2017-Jan-20 16:33N 38°03' W 122°19'1010.4
2017-Jan-20 15:33N 37°55' W 122°27'1110.9
2017-Jan-20 14:34N 37°46' W 122°20'0 0.2
2017-Jan-20 13:34N 37°45' W 122°20'3 3.2
2017-Jan-20 12:33N 37°49' W 122°20'0 0.1
2017-Jan-20 11:33N 37°49' W 122°20'0 0.1
2017-Jan-20 10:34N 37°49' W 122°20'0 0.0
2017-Jan-20 09:34N 37°49' W 122°20'0 0.0
2017-Jan-20 08:33N 37°49' W 122°20'0 0.0
2017-Jan-20 07:33N 37°49' W 122°20'0 0.0
2017-Jan-20 06:34N 37°49' W 122°20'0 0.0
2017-Jan-20 05:34N 37°49' W 122°20'0 0.0
2017-Jan-20 04:34N 37°49' W 122°20'0 0.0
2017-Jan-20 03:33N 37°49' W 122°20'0 0.0
2017-Jan-20 02:34N 37°49' W 122°20'6 5.6
2017-Jan-20 01:33N 37°53' W 122°25'8 8.3
2017-Jan-20 00:33N 38°01' W 122°23'7 7.1
2017-Jan-19 23:33N 38°04' W 122°14'0 0.0
2017-Jan-19 22:32N 38°04' W 122°14'1 0.6
2017-Jan-19 21:31N 38°04' W 122°15'1 0.6
2017-Jan-19 20:33N 38°03' W 122°15'0 0.0
2017-Jan-19 19:33N 38°03' W 122°15'0 0.0
2017-Jan-19 18:33N 38°03' W 122°15'1 0.9
2017-Jan-19 17:19N 38°05' W 122°15'1 0.4
2017-Jan-19 14:33N 38°03' W 122°15'0 0.0
2017-Jan-19 13:33N 38°03' W 122°15'8 7.7
2017-Jan-19 12:33N 38°01' W 122°24'5 5.5
2017-Jan-19 11:33N 37°55' W 122°25'5 4.9
2017-Jan-19 10:33N 37°50' W 122°24'6 6.4
2017-Jan-19 09:33N 37°45' W 122°20'0 0.2
2017-Jan-19 08:33N 37°45' W 122°20'4 3.7
2017-Jan-19 07:33N 37°49' W 122°20'0 0.3
2017-Jan-19 06:33N 37°49' W 122°20'0 0.0
2017-Jan-19 05:33N 37°49' W 122°20'1 1.1
2017-Jan-19 04:34N 37°48' W 122°21'2 1.8
2017-Jan-19 03:34N 37°49' W 122°19'0 0.1
2017-Jan-19 02:33N 37°49' W 122°20'1 0.9
2017-Jan-19 01:33N 37°49' W 122°19'0 0.0
2017-Jan-19 00:33N 37°49' W 122°19'2 2.2
2017-Jan-18 23:34N 37°48' W 122°21'2 2.1
2017-Jan-18 22:33N 37°49' W 122°19'0 0.0
2017-Jan-18 21:33N 37°49' W 122°19'0 0.0
2017-Jan-18 20:33N 37°49' W 122°19'0 0.0
2017-Jan-18 19:33N 37°49' W 122°19'0 0.0
2017-Jan-18 18:33N 37°49' W 122°19'0 0.0
2017-Jan-18 17:33N 37°49' W 122°19'0 0.0
2017-Jan-18 16:33N 37°49' W 122°19'0 0.0
2017-Jan-18 15:33N 37°49' W 122°19'1 1.0
2017-Jan-18 14:33N 37°49' W 122°20'1 1.1
2017-Jan-18 13:33N 37°48' W 122°21'0 0.3
2017-Jan-18 12:33N 37°48' W 122°21'0 0.0
2017-Jan-18 11:33N 37°48' W 122°21'1 0.6
2017-Jan-18 10:33N 37°49' W 122°20'0 0.5
2017-Jan-18 09:33N 37°49' W 122°19'1 0.8
2017-Jan-18 08:33N 37°49' W 122°19'0 0.0
2017-Jan-18 07:34N 37°49' W 122°19'0 0.0
2017-Jan-18 06:33N 37°49' W 122°19'0 0.0
2017-Jan-18 05:33N 37°49' W 122°19'0 0.0
2017-Jan-18 04:33N 37°49' W 122°19'0 0.0
2017-Jan-18 03:33N 37°49' W 122°19'0 0.0
2017-Jan-18 02:33N 37°49' W 122°19'1 1.3
2017-Jan-18 01:33N 37°49' W 122°20'2 2.0
2017-Jan-18 00:33N 37°47' W 122°18'1 1.2
2017-Jan-17 23:33N 37°48' W 122°20'3 3.3
2017-Jan-17 22:32N 37°48' W 122°24'0 0.0
2017-Jan-17 21:32N 37°48' W 122°24'0 0.1
2017-Jan-17 20:33N 37°48' W 122°24'9 8.9
2017-Jan-17 19:33N 37°57' W 122°26'11 9.5
2017-Jan-17 18:26N 38°04' W 122°15'0 0.0
2017-Jan-17 10:29N 38°04' W 122°15'8 8.5
2017-Jan-17 09:32N 38°01' W 122°25'9 9.5
2017-Jan-17 08:33N 37°51' W 122°24'6 6.0
2017-Jan-17 07:33N 37°49' W 122°31'2 2.1
2017-Jan-17 06:33N 37°49' W 122°29'4 3.9
2017-Jan-17 05:33N 37°51' W 122°24'1010.0
2017-Jan-17 04:33N 38°01' W 122°23'1211.4
2017-Jan-17 03:30N 38°02' W 122°08'5 0.8
2017-Jan-16 20:29N 38°03' W 122°15'5 5.1
2017-Jan-16 19:24N 38°02' W 122°08'2 0.2
2017-Jan-16 07:33N 38°03' W 122°10'4 0.4
2017-Jan-15 23:27N 38°03' W 122°15'0 0.0
2017-Jan-15 21:33N 38°03' W 122°15'9 9.1
2017-Jan-15 20:33N 37°59' W 122°25'4 4.1
2017-Jan-15 19:33N 37°55' W 122°25'1 0.7
2017-Jan-15 18:33N 37°55' W 122°25'0 0.0
2017-Jan-15 17:32N 37°55' W 122°25'4 4.1
2017-Jan-15 16:33N 37°51' W 122°24'4 3.9
2017-Jan-15 15:34N 37°49' W 122°20'3 2.9
2017-Jan-15 14:34N 37°48' W 122°24'0 0.0
2017-Jan-15 13:33N 37°48' W 122°24'0 0.0
2017-Jan-15 12:33N 37°48' W 122°24'3 3.0
2017-Jan-15 11:33N 37°47' W 122°21'8 8.0
2017-Jan-15 10:33N 37°48' W 122°31'2 2.3
2017-Jan-15 09:33N 37°49' W 122°28'4 3.6
2017-Jan-15 08:33N 37°48' W 122°24'5 5.0
2017-Jan-15 07:33N 37°53' W 122°25'2 2.1
2017-Jan-15 06:34N 37°55' W 122°25'0 0.2
2017-Jan-15 05:33N 37°55' W 122°25'1 1.4
2017-Jan-15 04:33N 37°54' W 122°25'1 1.3
2017-Jan-15 03:33N 37°55' W 122°25'0 0.0
2017-Jan-15 02:33N 37°55' W 122°25'0 0.0
2017-Jan-15 01:33N 37°55' W 122°25'0 0.0
2017-Jan-15 00:33N 37°55' W 122°25'0 0.0
2017-Jan-14 23:33N 37°55' W 122°25'0 0.0
2017-Jan-14 22:33N 37°55' W 122°25'0 0.0
2017-Jan-14 21:33N 37°55' W 122°25'0 0.4
2017-Jan-14 20:33N 37°56' W 122°25'3 2.6
2017-Jan-14 19:33N 37°53' W 122°25'1 0.8
2017-Jan-14 18:33N 37°53' W 122°26'3 2.8
2017-Jan-14 17:34N 37°55' W 122°25'0 0.1
2017-Jan-14 16:33N 37°55' W 122°25'0 0.0
2017-Jan-14 15:29N 37°55' W 122°25'0 0.0
2017-Jan-14 14:33N 37°55' W 122°25'0 0.0
2017-Jan-14 13:33N 37°55' W 122°25'0 0.0
2017-Jan-14 12:33N 37°55' W 122°25'0 0.1
2017-Jan-14 11:33N 37°55' W 122°24'7 7.5
2017-Jan-14 10:33N 38°02' W 122°21'8 7.6
2017-Jan-14 09:33N 38°03' W 122°11'3 3.1
2017-Jan-14 08:30N 38°02' W 122°07'3 2.0
2017-Jan-14 07:14N 38°03' W 122°11'6 8.2
2017-Jan-14 06:33N 38°03' W 122°18'6 0.6
2017-Jan-13 21:25N 38°03' W 122°11'9 9.2
2017-Jan-13 20:25N 38°02' W 122°22'910.2
2017-Jan-13 19:33N 37°53' W 122°26'8 7.7
2017-Jan-13 18:33N 37°47' W 122°21'0 0.0
2017-Jan-13 17:33N 37°47' W 122°21'3 2.6
2017-Jan-13 16:33N 37°48' W 122°24'0 0.0
2017-Jan-13 15:33N 37°48' W 122°24'1 1.0
2017-Jan-13 14:33N 37°49' W 122°23'1111.0
2017-Jan-13 13:32N 37°60' W 122°25'1010.4
2017-Jan-13 12:32N 38°04' W 122°13'1 0.6
2017-Jan-13 10:32N 38°03' W 122°15'0 0.0
2017-Jan-13 09:33N 38°03' W 122°15'0 0.0
2017-Jan-13 08:32N 38°03' W 122°15'0 0.0
2017-Jan-13 07:33N 38°03' W 122°15'1 0.8
2017-Jan-13 06:33N 38°04' W 122°16'8 8.2
2017-Jan-13 05:33N 37°60' W 122°25'8 8.3
2017-Jan-13 04:33N 37°51' W 122°24'6 5.5
2017-Jan-13 03:33N 37°48' W 122°19'0 0.0
2017-Jan-13 02:33N 37°48' W 122°19'0 0.3
2017-Jan-13 01:33N 37°48' W 122°18'0 0.0
2017-Jan-13 00:33N 37°48' W 122°18'6 6.2
2017-Jan-12 23:33N 37°52' W 122°24'10 9.9
2017-Jan-12 22:33N 38°02' W 122°22'6 2.1
2017-Jan-12 19:33N 38°04' W 122°15'10 9.4
2017-Jan-12 18:32N 37°59' W 122°25'9 9.3
2017-Jan-12 17:33N 37°50' W 122°22'3 2.5
2017-Jan-12 16:33N 37°49' W 122°20'0 0.0
2017-Jan-12 15:33N 37°49' W 122°20'0 0.3
2017-Jan-12 14:34N 37°49' W 122°20'3 3.4
2017-Jan-12 13:33N 37°48' W 122°24'0 0.0
2017-Jan-12 12:33N 37°48' W 122°24'0 0.0
2017-Jan-12 11:33N 37°48' W 122°24'0 0.0
2017-Jan-12 10:33N 37°48' W 122°24'2 1.5
2017-Jan-12 09:33N 37°50' W 122°23'8 8.4
2017-Jan-12 08:33N 37°58' W 122°26'8 7.7
2017-Jan-12 07:33N 38°03' W 122°19'3 2.5
2017-Jan-12 06:33N 38°03' W 122°16'  
Track history (hours):
 
Tides and Currents Weather Stations Pressure Air Temp Water Temp Dewpoint Dewpoint Depression Visibility Wind Speed Wind Dir Waves Ship Positions

Valor

Owner: Crowley Marine Services, Seattle, WA. More information available from US FCC via Universal Licensing System and Coast Guard Vessel Documentation Center.

Last reported at 2017-Jan-22 05:34 UTC. Time now 2017-Jan-22 06:03 UTC.
Position N 37°49' W 122°19'.

Length 8 m; draft 5.5 m.

Type: Tug. MMSI: 367301480.

Date/timePositionNaut miles runAvg speedWind from/ knotsBaromVisibWave heightAir tempDewpointWater temp
2017-Jan-22 05:34N 37°49' W 122°19'0 0.0
2017-Jan-22 04:34N 37°49' W 122°19'0 0.0
2017-Jan-22 03:34N 37°49' W 122°19'0 0.0
2017-Jan-22 02:33N 37°49' W 122°19'0 0.0
2017-Jan-22 01:34N 37°49' W 122°19'0 0.0
2017-Jan-22 00:33N 37°49' W 122°19'0 0.0
2017-Jan-21 23:33N 37°49' W 122°19'0 0.0
2017-Jan-21 22:34N 37°49' W 122°19'0 0.0
2017-Jan-21 21:33N 37°49' W 122°19'0 0.0
2017-Jan-21 20:33N 37°49' W 122°19'0 0.0
2017-Jan-21 19:34N 37°49' W 122°19'0 0.0
2017-Jan-21 18:33N 37°49' W 122°19'0 0.0
2017-Jan-21 17:33N 37°49' W 122°19'0 0.0
2017-Jan-21 16:33N 37°49' W 122°19'0 0.0
2017-Jan-21 15:33N 37°49' W 122°19'0 0.0
2017-Jan-21 14:33N 37°49' W 122°19'0 0.0
2017-Jan-21 13:34N 37°49' W 122°19'0 0.0
2017-Jan-21 12:34N 37°49' W 122°19'0 0.0
2017-Jan-21 11:33N 37°49' W 122°19'0 0.0
2017-Jan-21 10:34N 37°49' W 122°19'0 0.0
2017-Jan-21 09:33N 37°49' W 122°19'0 0.0
2017-Jan-21 08:34N 37°49' W 122°19'0 0.0
2017-Jan-21 07:34N 37°49' W 122°19'0 0.0
2017-Jan-21 06:34N 37°49' W 122°19'0 0.0
2017-Jan-21 05:33N 37°49' W 122°19'6 5.6
2017-Jan-21 04:33N 37°53' W 122°24'3 2.9
2017-Jan-21 03:33N 37°55' W 122°22'3 2.9
2017-Jan-21 02:34N 37°55' W 122°25'6 6.3
2017-Jan-21 01:34N 37°49' W 122°22'2 2.3
2017-Jan-21 00:33N 37°49' W 122°19'0 0.0
2017-Jan-20 23:34N 37°49' W 122°19'0 0.0
2017-Jan-20 22:34N 37°49' W 122°19'0 0.0
2017-Jan-20 21:34N 37°49' W 122°19'0 0.3
2017-Jan-20 20:34N 37°49' W 122°19'7 6.6
2017-Jan-20 19:34N 37°54' W 122°25'7 7.4
2017-Jan-20 18:33N 38°01' W 122°23'6 5.3
2017-Jan-20 17:22N 38°03' W 122°16'2 2.9
2017-Jan-20 16:33N 38°03' W 122°19'1010.4
2017-Jan-20 15:33N 37°55' W 122°27'1110.9
2017-Jan-20 14:34N 37°46' W 122°20'0 0.2
2017-Jan-20 13:34N 37°45' W 122°20'3 3.2
2017-Jan-20 12:33N 37°49' W 122°20'0 0.1
2017-Jan-20 11:33N 37°49' W 122°20'0 0.1
2017-Jan-20 10:34N 37°49' W 122°20'0 0.0
2017-Jan-20 09:34N 37°49' W 122°20'0 0.0
2017-Jan-20 08:33N 37°49' W 122°20'0 0.0
2017-Jan-20 07:33N 37°49' W 122°20'0 0.0
2017-Jan-20 06:34N 37°49' W 122°20'0 0.0
2017-Jan-20 05:34N 37°49' W 122°20'0 0.0
2017-Jan-20 04:34N 37°49' W 122°20'0 0.0
2017-Jan-20 03:33N 37°49' W 122°20'0 0.0
2017-Jan-20 02:34N 37°49' W 122°20'6 5.6
2017-Jan-20 01:33N 37°53' W 122°25'8 8.3
2017-Jan-20 00:33N 38°01' W 122°23'7 7.1
2017-Jan-19 23:33N 38°04' W 122°14'0 0.0
2017-Jan-19 22:32N 38°04' W 122°14'1 0.6
2017-Jan-19 21:31N 38°04' W 122°15'1 0.6
2017-Jan-19 20:33N 38°03' W 122°15'0 0.0
2017-Jan-19 19:33N 38°03' W 122°15'0 0.0
2017-Jan-19 18:33N 38°03' W 122°15'1 0.9
2017-Jan-19 17:19N 38°05' W 122°15'1 0.4
2017-Jan-19 14:33N 38°03' W 122°15'0 0.0
2017-Jan-19 13:33N 38°03' W 122°15'8 7.7
2017-Jan-19 12:33N 38°01' W 122°24'5 5.5
2017-Jan-19 11:33N 37°55' W 122°25'5 4.9
2017-Jan-19 10:33N 37°50' W 122°24'6 6.4
2017-Jan-19 09:33N 37°45' W 122°20'0 0.2
2017-Jan-19 08:33N 37°45' W 122°20'4 3.7
2017-Jan-19 07:33N 37°49' W 122°20'0 0.3
2017-Jan-19 06:33N 37°49' W 122°20'0 0.0
2017-Jan-19 05:33N 37°49' W 122°20'1 1.1
2017-Jan-19 04:34N 37°48' W 122°21'2 1.8
2017-Jan-19 03:34N 37°49' W 122°19'0 0.1
2017-Jan-19 02:33N 37°49' W 122°20'1 0.9
2017-Jan-19 01:33N 37°49' W 122°19'0 0.0
2017-Jan-19 00:33N 37°49' W 122°19'2 2.2
2017-Jan-18 23:34N 37°48' W 122°21'2 2.1
2017-Jan-18 22:33N 37°49' W 122°19'0 0.0
2017-Jan-18 21:33N 37°49' W 122°19'0 0.0
2017-Jan-18 20:33N 37°49' W 122°19'0 0.0
2017-Jan-18 19:33N 37°49' W 122°19'0 0.0
2017-Jan-18 18:33N 37°49' W 122°19'0 0.0
2017-Jan-18 17:33N 37°49' W 122°19'0 0.0
2017-Jan-18 16:33N 37°49' W 122°19'0 0.0
2017-Jan-18 15:33N 37°49' W 122°19'1 1.0
2017-Jan-18 14:33N 37°49' W 122°20'1 1.1
2017-Jan-18 13:33N 37°48' W 122°21'0 0.3
2017-Jan-18 12:33N 37°48' W 122°21'0 0.0
2017-Jan-18 11:33N 37°48' W 122°21'1 0.6
2017-Jan-18 10:33N 37°49' W 122°20'0 0.5
2017-Jan-18 09:33N 37°49' W 122°19'1 0.8
2017-Jan-18 08:33N 37°49' W 122°19'0 0.0
2017-Jan-18 07:34N 37°49' W 122°19'0 0.0
2017-Jan-18 06:33N 37°49' W 122°19'0 0.0
2017-Jan-18 05:33N 37°49' W 122°19'0 0.0
2017-Jan-18 04:33N 37°49' W 122°19'0 0.0
2017-Jan-18 03:33N 37°49' W 122°19'0 0.0
2017-Jan-18 02:33N 37°49' W 122°19'1 1.3
2017-Jan-18 01:33N 37°49' W 122°20'2 2.0
2017-Jan-18 00:33N 37°47' W 122°18'1 1.2
2017-Jan-17 23:33N 37°48' W 122°20'3 3.3
2017-Jan-17 22:32N 37°48' W 122°24'0 0.0
2017-Jan-17 21:32N 37°48' W 122°24'0 0.1
2017-Jan-17 20:33N 37°48' W 122°24'9 8.9
2017-Jan-17 19:33N 37°57' W 122°26'11 9.5
2017-Jan-17 18:26N 38°04' W 122°15'0 0.0
2017-Jan-17 10:29N 38°04' W 122°15'8 8.5
2017-Jan-17 09:32N 38°01' W 122°25'9 9.5
2017-Jan-17 08:33N 37°51' W 122°24'6 6.0
2017-Jan-17 07:33N 37°49' W 122°31'2 2.1
2017-Jan-17 06:33N 37°49' W 122°29'4 3.9
2017-Jan-17 05:33N 37°51' W 122°24'1010.0
2017-Jan-17 04:33N 38°01' W 122°23'1211.4
2017-Jan-17 03:30N 38°02' W 122°08'5 0.8
2017-Jan-16 20:29N 38°03' W 122°15'5 5.1
2017-Jan-16 19:24N 38°02' W 122°08'2 0.2
2017-Jan-16 07:33N 38°03' W 122°10'4 0.4
2017-Jan-15 23:27N 38°03' W 122°15'0 0.0
2017-Jan-15 21:33N 38°03' W 122°15'9 9.1
2017-Jan-15 20:33N 37°59' W 122°25'4 4.1
2017-Jan-15 19:33N 37°55' W 122°25'1 0.7
2017-Jan-15 18:33N 37°55' W 122°25'0 0.0
2017-Jan-15 17:32N 37°55' W 122°25'4 4.1
2017-Jan-15 16:33N 37°51' W 122°24'4 3.9
2017-Jan-15 15:34N 37°49' W 122°20'3 2.9
2017-Jan-15 14:34N 37°48' W 122°24'0 0.0
2017-Jan-15 13:33N 37°48' W 122°24'0 0.0
2017-Jan-15 12:33N 37°48' W 122°24'3 3.0
2017-Jan-15 11:33N 37°47' W 122°21'8 8.0
2017-Jan-15 10:33N 37°48' W 122°31'2 2.3
2017-Jan-15 09:33N 37°49' W 122°28'4 3.6
2017-Jan-15 08:33N 37°48' W 122°24'5 5.0
2017-Jan-15 07:33N 37°53' W 122°25'2 2.1
2017-Jan-15 06:34N 37°55' W 122°25'0 0.2
2017-Jan-15 05:33N 37°55' W 122°25'1 1.4
2017-Jan-15 04:33N 37°54' W 122°25'1 1.3
2017-Jan-15 03:33N 37°55' W 122°25'0 0.0
2017-Jan-15 02:33N 37°55' W 122°25'0 0.0
2017-Jan-15 01:33N 37°55' W 122°25'0 0.0
2017-Jan-15 00:33N 37°55' W 122°25'0 0.0
2017-Jan-14 23:33N 37°55' W 122°25'0 0.0
2017-Jan-14 22:33N 37°55' W 122°25'0 0.0
2017-Jan-14 21:33N 37°55' W 122°25'0 0.4
2017-Jan-14 20:33N 37°56' W 122°25'3 2.6
2017-Jan-14 19:33N 37°53' W 122°25'1 0.8
2017-Jan-14 18:33N 37°53' W 122°26'3 2.8
2017-Jan-14 17:34N 37°55' W 122°25'0 0.1
2017-Jan-14 16:33N 37°55' W 122°25'0 0.0
2017-Jan-14 15:29N 37°55' W 122°25'0 0.0
2017-Jan-14 14:33N 37°55' W 122°25'0 0.0
2017-Jan-14 13:33N 37°55' W 122°25'0 0.0
2017-Jan-14 12:33N 37°55' W 122°25'0 0.1
2017-Jan-14 11:33N 37°55' W 122°24'7 7.5
2017-Jan-14 10:33N 38°02' W 122°21'8 7.6
2017-Jan-14 09:33N 38°03' W 122°11'3 3.1
2017-Jan-14 08:30N 38°02' W 122°07'3 2.0
2017-Jan-14 07:14N 38°03' W 122°11'6 8.2
2017-Jan-14 06:33N 38°03' W 122°18'6 0.6
2017-Jan-13 21:25N 38°03' W 122°11'9 9.2
2017-Jan-13 20:25N 38°02' W 122°22'910.2
2017-Jan-13 19:33N 37°53' W 122°26'8 7.7
2017-Jan-13 18:33N 37°47' W 122°21'0 0.0
2017-Jan-13 17:33N 37°47' W 122°21'3 2.6
2017-Jan-13 16:33N 37°48' W 122°24'0 0.0
2017-Jan-13 15:33N 37°48' W 122°24'1 1.0
2017-Jan-13 14:33N 37°49' W 122°23'1111.0
2017-Jan-13 13:32N 37°60' W 122°25'1010.4
2017-Jan-13 12:32N 38°04' W 122°13'1 0.6
2017-Jan-13 10:32N 38°03' W 122°15'0 0.0
2017-Jan-13 09:33N 38°03' W 122°15'0 0.0
2017-Jan-13 08:32N 38°03' W 122°15'0 0.0
2017-Jan-13 07:33N 38°03' W 122°15'1 0.8
2017-Jan-13 06:33N 38°04' W 122°16'8 8.2
2017-Jan-13 05:33N 37°60' W 122°25'8 8.3
2017-Jan-13 04:33N 37°51' W 122°24'6 5.5
2017-Jan-13 03:33N 37°48' W 122°19'0 0.0
2017-Jan-13 02:33N 37°48' W 122°19'0 0.3
2017-Jan-13 01:33N 37°48' W 122°18'0 0.0
2017-Jan-13 00:33N 37°48' W 122°18'6 6.2
2017-Jan-12 23:33N 37°52' W 122°24'10 9.9
2017-Jan-12 22:33N 38°02' W 122°22'6 2.1
2017-Jan-12 19:33N 38°04' W 122°15'10 9.4
2017-Jan-12 18:32N 37°59' W 122°25'9 9.3
2017-Jan-12 17:33N 37°50' W 122°22'3 2.5
2017-Jan-12 16:33N 37°49' W 122°20'0 0.0
2017-Jan-12 15:33N 37°49' W 122°20'0 0.3
2017-Jan-12 14:34N 37°49' W 122°20'3 3.4
2017-Jan-12 13:33N 37°48' W 122°24'0 0.0
2017-Jan-12 12:33N 37°48' W 122°24'0 0.0
2017-Jan-12 11:33N 37°48' W 122°24'0 0.0
2017-Jan-12 10:33N 37°48' W 122°24'2 1.5
2017-Jan-12 09:33N 37°50' W 122°23'8 8.4
2017-Jan-12 08:33N 37°58' W 122°26'8 7.7
2017-Jan-12 07:33N 38°03' W 122°19'3 2.5
2017-Jan-12 06:33N 38°03' W 122°16'  

Dump ship's entire track history